Helton, North Carolina
Current Conditions -  °F | °C
As of 7:15 PM on Wednesday 28 Jan 2015 (Local Time) from KGEV Reporting Station
Clear Clear  
Wind Chill: 32°   Ceiling: Unl
Heat Index: 32°   Visibility: 10mi
Dew Point:   Wind: 0mph
Humidity: 38%   Direction: NA
Pressure: 30.19"   Gusts: NA
Location:  36.5447°N, 81.4342°W
Report Text: KGEV 290015Z AUTO 00000KT 10SM CLR 00/M13 A3019 RMK AO2 T10021130
Loading
Personal Weather Stations






























Interactive Weather Map New forecast layout! Learn more

10-Day Weather Forecast

Advertisements
Track Severe Weather on mobile